Portada
METAR-TAF:

METAR-TAF

Aeroports :

Bocas Town, Panamà

latitud: 09-21N, longitud: 082-15W, altitud: 3 m

Observació

L'informe es va fer fa 21 minuts, a les 17:00 UTC
Vent 4 kt del Nord-Est
Temperatura 30°C
Humitat 89%
Pressió 1011 hPa
Visibilitat 10 km o més
Núvols disperses a una alçada de 2000 ft
Núvols disperses a una alçada de 8000 ft

METAR: MPBO 231700Z 05004KT 9999 SCT020 SCT080 30/28 Q1011

Hora: 12:21 (17:21 UTC)


TAF: manca

Observacions i pronòstics meteorològics de més de 4000 aeroports (METAR i TAF).

Les estacions disponibles són els punts grocs i vermells al mapa.

Posi el ratolí al punt desitjat per veure el nom de l'estació.

Feu clic per veure les observacions i els pronòstics meteorològics.

Per canviar el mapa: feu clic els botons verds amb una creu de color negre per apropar; al botó verd amb un guió per allunyar la imatge; o en les fletxes verdes per a mapes adjacents.


METAR-TAF: